sensor_id;sensor_type;location;lat;lon;timestamp;temperature;humidity
10417;DHT22;62605;49.432;8.680;2022-08-24T00:01:33;24.40;99.90
10417;DHT22;62605;49.432;8.680;2022-08-24T00:04:01;24.40;99.90
10417;DHT22;62605;49.432;8.680;2022-08-24T00:06:28;24.40;99.90
10417;DHT22;62605;49.432;8.680;2022-08-24T00:08:56;24.40;99.90
10417;DHT22;62605;49.432;8.680;2022-08-24T00:11:24;24.40;99.90
10417;DHT22;62605;49.432;8.680;2022-08-24T00:13:54;24.30;99.90
10417;DHT22;62605;49.432;8.680;2022-08-24T00:16:21;24.30;99.90
10417;DHT22;62605;49.432;8.680;2022-08-24T00:18:49;24.30;99.90
10417;DHT22;62605;49.432;8.680;2022-08-24T00:21:16;24.20;99.90
10417;DHT22;62605;49.432;8.680;2022-08-24T00:23:44;24.20;99.90
10417;DHT22;62605;49.432;8.680;2022-08-24T00:26:12;24.20;99.90
10417;DHT22;62605;49.432;8.680;2022-08-24T00:28:40;24.20;99.90
10417;DHT22;62605;49.432;8.680;2022-08-24T00:31:08;24.10;99.90
10417;DHT22;62605;49.432;8.680;2022-08-24T00:33:36;24.10;99.90
10417;DHT22;62605;49.432;8.680;2022-08-24T00:36:04;24.10;99.90
10417;DHT22;62605;49.432;8.680;2022-08-24T00:38:33;24.00;99.90
10417;DHT22;62605;49.432;8.680;2022-08-24T00:41:02;23.90;99.90
10417;DHT22;62605;49.432;8.680;2022-08-24T00:43:29;23.70;99.90
10417;DHT22;62605;49.432;8.680;2022-08-24T00:46:10;23.90;99.90
10417;DHT22;62605;49.432;8.680;2022-08-24T00:48:41;23.80;99.90
10417;DHT22;62605;49.432;8.680;2022-08-24T00:51:19;23.90;99.90
10417;DHT22;62605;49.432;8.680;2022-08-24T00:53:50;23.80;99.90
10417;DHT22;62605;49.432;8.680;2022-08-24T00:56:23;23.70;99.90
10417;DHT22;62605;49.432;8.680;2022-08-24T00:58:54;23.80;99.90
10417;DHT22;62605;49.432;8.680;2022-08-24T01:01:24;23.80;99.90
10417;DHT22;62605;49.432;8.680;2022-08-24T01:03:52;23.80;99.90
10417;DHT22;62605;49.432;8.680;2022-08-24T01:06:19;23.70;99.90
10417;DHT22;62605;49.432;8.680;2022-08-24T01:08:46;23.70;99.90
10417;DHT22;62605;49.432;8.680;2022-08-24T01:11:15;23.70;99.90
10417;DHT22;62605;49.432;8.680;2022-08-24T01:13:46;23.60;99.90
10417;DHT22;62605;49.432;8.680;2022-08-24T01:16:15;23.50;99.90
10417;DHT22;62605;49.432;8.680;2022-08-24T01:19:11;23.40;99.90
10417;DHT22;62605;49.432;8.680;2022-08-24T01:21:48;23.30;99.90
10417;DHT22;62605;49.432;8.680;2022-08-24T01:24:17;23.20;99.90
10417;DHT22;62605;49.432;8.680;2022-08-24T01:26:46;23.20;99.90
10417;DHT22;62605;49.432;8.680;2022-08-24T01:29:18;23.10;99.90
10417;DHT22;62605;49.432;8.680;2022-08-24T01:31:46;23.10;99.90
10417;DHT22;62605;49.432;8.680;2022-08-24T01:34:13;23.20;99.90
10417;DHT22;62605;49.432;8.680;2022-08-24T01:36:44;23.10;99.90
10417;DHT22;62605;49.432;8.680;2022-08-24T01:39:18;23.10;99.90
10417;DHT22;62605;49.432;8.680;2022-08-24T01:41:46;23.10;99.90
10417;DHT22;62605;49.432;8.680;2022-08-24T01:44:14;23.10;99.90
10417;DHT22;62605;49.432;8.680;2022-08-24T01:46:42;23.00;99.90
10417;DHT22;62605;49.432;8.680;2022-08-24T01:49:10;22.90;99.90
10417;DHT22;62605;49.432;8.680;2022-08-24T01:51:37;23.00;99.90
10417;DHT22;62605;49.432;8.680;2022-08-24T01:54:05;23.00;99.90
10417;DHT22;62605;49.432;8.680;2022-08-24T01:56:34;23.00;99.90
10417;DHT22;62605;49.432;8.680;2022-08-24T01:59:02;23.10;99.90
10417;DHT22;62605;49.432;8.680;2022-08-24T02:01:32;23.10;99.90
10417;DHT22;62605;49.432;8.680;2022-08-24T02:04:03;23.10;99.90
10417;DHT22;62605;49.432;8.680;2022-08-24T02:06:30;23.10;99.90
10417;DHT22;62605;49.432;8.680;2022-08-24T02:08:58;23.20;99.90
10417;DHT22;62605;49.432;8.680;2022-08-24T02:11:25;23.10;99.90
10417;DHT22;62605;49.432;8.680;2022-08-24T02:13:54;23.10;99.90
10417;DHT22;62605;49.432;8.680;2022-08-24T02:16:21;23.10;99.90
10417;DHT22;62605;49.432;8.680;2022-08-24T02:18:49;23.20;99.90
10417;DHT22;62605;49.432;8.680;2022-08-24T02:21:16;23.10;99.90
10417;DHT22;62605;49.432;8.680;2022-08-24T02:23:43;23.00;99.90
10417;DHT22;62605;49.432;8.680;2022-08-24T02:26:11;23.00;99.90
10417;DHT22;62605;49.432;8.680;2022-08-24T02:28:39;23.10;99.90
10417;DHT22;62605;49.432;8.680;2022-08-24T02:31:09;23.10;99.90
10417;DHT22;62605;49.432;8.680;2022-08-24T02:33:37;23.00;99.90
10417;DHT22;62605;49.432;8.680;2022-08-24T02:36:06;23.00;99.90
10417;DHT22;62605;49.432;8.680;2022-08-24T02:38:33;23.00;99.90
10417;DHT22;62605;49.432;8.680;2022-08-24T02:41:00;23.00;99.90
10417;DHT22;62605;49.432;8.680;2022-08-24T02:43:28;22.90;99.90
10417;DHT22;62605;49.432;8.680;2022-08-24T02:45:55;22.90;99.90
10417;DHT22;62605;49.432;8.680;2022-08-24T02:48:25;23.00;99.90
10417;DHT22;62605;49.432;8.680;2022-08-24T02:50:52;23.10;99.90
10417;DHT22;62605;49.432;8.680;2022-08-24T02:53:20;23.00;99.90
10417;DHT22;62605;49.432;8.680;2022-08-24T02:55:48;22.90;99.90
10417;DHT22;62605;49.432;8.680;2022-08-24T02:58:16;22.90;99.90
10417;DHT22;62605;49.432;8.680;2022-08-24T03:00:45;22.90;99.90
10417;DHT22;62605;49.432;8.680;2022-08-24T03:03:13;22.90;99.90
10417;DHT22;62605;49.432;8.680;2022-08-24T03:05:41;22.80;99.90
10417;DHT22;62605;49.432;8.680;2022-08-24T03:08:08;22.00;99.90
10417;DHT22;62605;49.432;8.680;2022-08-24T03:10:37;21.60;99.90
10417;DHT22;62605;49.432;8.680;2022-08-24T03:13:04;21.40;99.90
10417;DHT22;62605;49.432;8.680;2022-08-24T03:15:32;21.30;99.90
10417;DHT22;62605;49.432;8.680;2022-08-24T03:17:59;21.30;99.90
10417;DHT22;62605;49.432;8.680;2022-08-24T03:20:26;21.20;99.90
10417;DHT22;62605;49.432;8.680;2022-08-24T03:22:55;21.20;99.90
10417;DHT22;62605;49.432;8.680;2022-08-24T03:25:22;21.20;99.90
10417;DHT22;62605;49.432;8.680;2022-08-24T03:27:51;21.30;99.90
10417;DHT22;62605;49.432;8.680;2022-08-24T03:30:20;21.30;99.90
10417;DHT22;62605;49.432;8.680;2022-08-24T03:32:48;21.30;99.90
10417;DHT22;62605;49.432;8.680;2022-08-24T03:35:16;21.30;99.90
10417;DHT22;62605;49.432;8.680;2022-08-24T03:37:43;21.30;99.90
10417;DHT22;62605;49.432;8.680;2022-08-24T03:40:12;21.30;99.90
10417;DHT22;62605;49.432;8.680;2022-08-24T03:42:39;21.20;99.90
10417;DHT22;62605;49.432;8.680;2022-08-24T03:45:07;21.20;99.90
10417;DHT22;62605;49.432;8.680;2022-08-24T03:47:35;21.20;99.90
10417;DHT22;62605;49.432;8.680;2022-08-24T03:50:03;21.30;99.90
10417;DHT22;62605;49.432;8.680;2022-08-24T03:52:32;21.20;99.90
10417;DHT22;62605;49.432;8.680;2022-08-24T03:55:00;21.10;99.90
10417;DHT22;62605;49.432;8.680;2022-08-24T03:57:28;21.10;99.90
10417;DHT22;62605;49.432;8.680;2022-08-24T03:59:55;20.90;99.90
10417;DHT22;62605;49.432;8.680;2022-08-24T04:02:22;20.80;99.90
10417;DHT22;62605;49.432;8.680;2022-08-24T04:04:51;20.70;99.90
10417;DHT22;62605;49.432;8.680;2022-08-24T04:07:18;20.60;99.90
10417;DHT22;62605;49.432;8.680;2022-08-24T04:09:45;20.60;99.90
10417;DHT22;62605;49.432;8.680;2022-08-24T04:12:12;20.40;99.90
10417;DHT22;62605;49.432;8.680;2022-08-24T04:14:41;20.40;99.90
10417;DHT22;62605;49.432;8.680;2022-08-24T04:17:09;20.40;99.90
10417;DHT22;62605;49.432;8.680;2022-08-24T04:19:37;20.30;99.90
10417;DHT22;62605;49.432;8.680;2022-08-24T04:22:24;20.20;99.90
10417;DHT22;62605;49.432;8.680;2022-08-24T04:24:51;20.10;99.90
10417;DHT22;62605;49.432;8.680;2022-08-24T04:27:18;20.00;99.90
10417;DHT22;62605;49.432;8.680;2022-08-24T04:29:47;20.00;99.90
10417;DHT22;62605;49.432;8.680;2022-08-24T04:32:14;20.00;99.90
10417;DHT22;62605;49.432;8.680;2022-08-24T04:34:41;19.90;99.90
10417;DHT22;62605;49.432;8.680;2022-08-24T04:37:09;20.00;99.90
10417;DHT22;62605;49.432;8.680;2022-08-24T04:39:36;20.00;99.90
10417;DHT22;62605;49.432;8.680;2022-08-24T04:42:04;19.90;99.90
10417;DHT22;62605;49.432;8.680;2022-08-24T04:44:32;19.90;99.90
10417;DHT22;62605;49.432;8.680;2022-08-24T04:47:01;20.00;99.90
10417;DHT22;62605;49.432;8.680;2022-08-24T04:49:28;19.90;99.90
10417;DHT22;62605;49.432;8.680;2022-08-24T04:51:56;19.90;99.90
10417;DHT22;62605;49.432;8.680;2022-08-24T04:54:23;19.90;99.90
10417;DHT22;62605;49.432;8.680;2022-08-24T04:56:50;20.00;99.90
10417;DHT22;62605;49.432;8.680;2022-08-24T04:59:18;20.10;99.90
10417;DHT22;62605;49.432;8.680;2022-08-24T05:01:45;20.10;99.90
10417;DHT22;62605;49.432;8.680;2022-08-24T05:04:14;20.10;99.90
10417;DHT22;62605;49.432;8.680;2022-08-24T05:06:41;20.20;99.90
10417;DHT22;62605;49.432;8.680;2022-08-24T05:09:09;20.20;99.90
10417;DHT22;62605;49.432;8.680;2022-08-24T05:11:37;20.30;99.90
10417;DHT22;62605;49.432;8.680;2022-08-24T05:14:06;20.30;99.90
10417;DHT22;62605;49.432;8.680;2022-08-24T05:16:33;20.40;99.90
10417;DHT22;62605;49.432;8.680;2022-08-24T05:19:03;20.30;99.90
10417;DHT22;62605;49.432;8.680;2022-08-24T05:21:33;20.40;99.90
10417;DHT22;62605;49.432;8.680;2022-08-24T05:24:00;20.50;99.90
10417;DHT22;62605;49.432;8.680;2022-08-24T05:26:28;20.40;99.90
10417;DHT22;62605;49.432;8.680;2022-08-24T05:28:58;20.30;99.90
10417;DHT22;62605;49.432;8.680;2022-08-24T05:31:28;20.40;99.90
10417;DHT22;62605;49.432;8.680;2022-08-24T05:33:57;20.40;99.90
10417;DHT22;62605;49.432;8.680;2022-08-24T05:36:26;20.40;99.90
10417;DHT22;62605;49.432;8.680;2022-08-24T05:38:56;20.40;99.90
10417;DHT22;62605;49.432;8.680;2022-08-24T05:41:25;20.40;99.90
10417;DHT22;62605;49.432;8.680;2022-08-24T05:43:53;20.40;99.90
10417;DHT22;62605;49.432;8.680;2022-08-24T05:46:20;20.40;99.90
10417;DHT22;62605;49.432;8.680;2022-08-24T05:48:47;20.40;99.90
10417;DHT22;62605;49.432;8.680;2022-08-24T05:51:15;20.30;99.90
10417;DHT22;62605;49.432;8.680;2022-08-24T05:53:42;20.30;99.90
10417;DHT22;62605;49.432;8.680;2022-08-24T05:56:13;20.30;99.90
10417;DHT22;62605;49.432;8.680;2022-08-24T05:58:41;20.40;99.90
10417;DHT22;62605;49.432;8.680;2022-08-24T06:01:10;20.40;99.90
10417;DHT22;62605;49.432;8.680;2022-08-24T06:03:38;20.60;99.90
10417;DHT22;62605;49.432;8.680;2022-08-24T06:06:07;20.50;99.90
10417;DHT22;62605;49.432;8.680;2022-08-24T06:08:36;20.50;99.90
10417;DHT22;62605;49.432;8.680;2022-08-24T06:11:04;20.60;99.90
10417;DHT22;62605;49.432;8.680;2022-08-24T06:13:33;20.70;99.90
10417;DHT22;62605;49.432;8.680;2022-08-24T06:16:05;20.80;99.90
10417;DHT22;62605;49.432;8.680;2022-08-24T06:18:33;20.90;99.90
10417;DHT22;62605;49.432;8.680;2022-08-24T06:21:06;21.00;99.90
10417;DHT22;62605;49.432;8.680;2022-08-24T06:23:35;21.20;99.90
10417;DHT22;62605;49.432;8.680;2022-08-24T06:26:02;21.20;99.90
10417;DHT22;62605;49.432;8.680;2022-08-24T06:28:49;21.20;99.90
10417;DHT22;62605;49.432;8.680;2022-08-24T06:31:18;21.30;99.90
10417;DHT22;62605;49.432;8.680;2022-08-24T06:33:45;21.40;99.90
10417;DHT22;62605;49.432;8.680;2022-08-24T06:36:13;21.40;99.90
10417;DHT22;62605;49.432;8.680;2022-08-24T06:38:41;21.50;99.90
10417;DHT22;62605;49.432;8.680;2022-08-24T06:41:08;21.60;99.90
10417;DHT22;62605;49.432;8.680;2022-08-24T06:43:36;21.70;99.90
10417;DHT22;62605;49.432;8.680;2022-08-24T06:46:05;21.90;99.90
10417;DHT22;62605;49.432;8.680;2022-08-24T06:48:33;22.00;99.90
10417;DHT22;62605;49.432;8.680;2022-08-24T06:51:01;22.10;99.90
10417;DHT22;62605;49.432;8.680;2022-08-24T06:53:33;22.20;99.90
10417;DHT22;62605;49.432;8.680;2022-08-24T06:56:00;22.20;99.90
10417;DHT22;62605;49.432;8.680;2022-08-24T06:58:28;22.20;99.90
10417;DHT22;62605;49.432;8.680;2022-08-24T07:00:56;22.20;99.90
10417;DHT22;62605;49.432;8.680;2022-08-24T07:03:24;22.30;99.90
10417;DHT22;62605;49.432;8.680;2022-08-24T07:05:53;22.30;99.90
10417;DHT22;62605;49.432;8.680;2022-08-24T07:08:20;22.40;99.90
10417;DHT22;62605;49.432;8.680;2022-08-24T07:10:48;22.50;99.90
10417;DHT22;62605;49.432;8.680;2022-08-24T07:13:15;22.60;99.90
10417;DHT22;62605;49.432;8.680;2022-08-24T07:15:43;22.60;99.90
10417;DHT22;62605;49.432;8.680;2022-08-24T07:18:11;22.50;99.90
10417;DHT22;62605;49.432;8.680;2022-08-24T07:20:40;22.60;99.90
10417;DHT22;62605;49.432;8.680;2022-08-24T07:23:09;22.50;99.90
10417;DHT22;62605;49.432;8.680;2022-08-24T07:25:37;22.80;99.90
10417;DHT22;62605;49.432;8.680;2022-08-24T07:28:04;22.70;99.90
10417;DHT22;62605;49.432;8.680;2022-08-24T07:30:31;22.90;99.90
10417;DHT22;62605;49.432;8.680;2022-08-24T07:32:59;23.00;99.90
10417;DHT22;62605;49.432;8.680;2022-08-24T07:35:29;23.10;99.90
10417;DHT22;62605;49.432;8.680;2022-08-24T07:37:59;23.10;99.90
10417;DHT22;62605;49.432;8.680;2022-08-24T07:40:28;23.20;99.90
10417;DHT22;62605;49.432;8.680;2022-08-24T07:42:58;23.50;99.90
10417;DHT22;62605;49.432;8.680;2022-08-24T07:45:26;23.60;99.90
10417;DHT22;62605;49.432;8.680;2022-08-24T07:47:54;23.60;99.90
10417;DHT22;62605;49.432;8.680;2022-08-24T07:50:21;23.60;99.90
10417;DHT22;62605;49.432;8.680;2022-08-24T07:52:49;23.80;99.90
10417;DHT22;62605;49.432;8.680;2022-08-24T07:55:18;23.80;99.90
10417;DHT22;62605;49.432;8.680;2022-08-24T07:57:45;23.90;99.90
10417;DHT22;62605;49.432;8.680;2022-08-24T08:00:14;23.80;99.90
10417;DHT22;62605;49.432;8.680;2022-08-24T08:02:44;23.90;99.90
10417;DHT22;62605;49.432;8.680;2022-08-24T08:05:13;24.00;99.90
10417;DHT22;62605;49.432;8.680;2022-08-24T08:07:40;24.10;99.90
10417;DHT22;62605;49.432;8.680;2022-08-24T08:10:09;24.10;99.90
10417;DHT22;62605;49.432;8.680;2022-08-24T08:12:38;24.10;99.90
10417;DHT22;62605;49.432;8.680;2022-08-24T08:15:06;24.10;99.90
10417;DHT22;62605;49.432;8.680;2022-08-24T08:17:34;24.20;99.90
10417;DHT22;62605;49.432;8.680;2022-08-24T08:20:02;24.20;99.90
10417;DHT22;62605;49.432;8.680;2022-08-24T08:22:30;24.50;99.90
10417;DHT22;62605;49.432;8.680;2022-08-24T08:25:15;24.70;99.90
10417;DHT22;62605;49.432;8.680;2022-08-24T08:27:45;24.70;99.90
10417;DHT22;62605;49.432;8.680;2022-08-24T08:30:14;24.80;99.90
10417;DHT22;62605;49.432;8.680;2022-08-24T08:32:41;24.80;99.90
10417;DHT22;62605;49.432;8.680;2022-08-24T08:35:09;24.90;99.90
10417;DHT22;62605;49.432;8.680;2022-08-24T08:37:36;24.70;99.90
10417;DHT22;62605;49.432;8.680;2022-08-24T08:40:05;24.80;99.90
10417;DHT22;62605;49.432;8.680;2022-08-24T08:42:46;24.80;99.90
10417;DHT22;62605;49.432;8.680;2022-08-24T08:45:45;25.00;99.90
10417;DHT22;62605;49.432;8.680;2022-08-24T08:48:37;25.10;99.90
10417;DHT22;62605;49.432;8.680;2022-08-24T08:54:28;25.10;99.90
10417;DHT22;62605;49.432;8.680;2022-08-24T08:57:13;25.30;99.90
10417;DHT22;62605;49.432;8.680;2022-08-24T09:00:10;25.40;99.90
10417;DHT22;62605;49.432;8.680;2022-08-24T09:03:14;25.30;99.90
10417;DHT22;62605;49.432;8.680;2022-08-24T09:06:21;25.50;99.90
10417;DHT22;62605;49.432;8.680;2022-08-24T09:09:03;25.60;99.90
10417;DHT22;62605;49.432;8.680;2022-08-24T09:11:39;25.90;99.90
10417;DHT22;62605;49.432;8.680;2022-08-24T09:14:37;25.80;99.90
10417;DHT22;62605;49.432;8.680;2022-08-24T09:17:22;25.90;99.90
10417;DHT22;62605;49.432;8.680;2022-08-24T09:20:08;26.10;99.90
10417;DHT22;62605;49.432;8.680;2022-08-24T09:22:40;26.30;99.90
10417;DHT22;62605;49.432;8.680;2022-08-24T09:25:20;26.30;99.90
10417;DHT22;62605;49.432;8.680;2022-08-24T09:27:59;26.40;99.90
10417;DHT22;62605;49.432;8.680;2022-08-24T09:30:39;26.40;99.90
10417;DHT22;62605;49.432;8.680;2022-08-24T09:33:20;26.60;99.90
10417;DHT22;62605;49.432;8.680;2022-08-24T09:36:06;26.70;99.90
10417;DHT22;62605;49.432;8.680;2022-08-24T09:38:58;26.80;99.90
10417;DHT22;62605;49.432;8.680;2022-08-24T09:42:00;27.00;99.90
10417;DHT22;62605;49.432;8.680;2022-08-24T09:45:00;27.10;99.90
10417;DHT22;62605;49.432;8.680;2022-08-24T09:48:01;27.30;99.90
10417;DHT22;62605;49.432;8.680;2022-08-24T09:50:54;27.60;99.90
10417;DHT22;62605;49.432;8.680;2022-08-24T09:54:08;27.50;99.90
10417;DHT22;62605;49.432;8.680;2022-08-24T09:56:54;27.40;99.90
10417;DHT22;62605;49.432;8.680;2022-08-24T09:59:40;27.50;99.90
10417;DHT22;62605;49.432;8.680;2022-08-24T10:02:31;27.50;99.90
10417;DHT22;62605;49.432;8.680;2022-08-24T10:05:10;27.80;99.90
10417;DHT22;62605;49.432;8.680;2022-08-24T10:07:49;28.10;99.90
10417;DHT22;62605;49.432;8.680;2022-08-24T10:10:28;28.20;99.90
10417;DHT22;62605;49.432;8.680;2022-08-24T10:13:04;28.00;99.90
10417;DHT22;62605;49.432;8.680;2022-08-24T10:15:40;28.50;99.90
10417;DHT22;62605;49.432;8.680;2022-08-24T10:18:34;28.30;99.90
10417;DHT22;62605;49.432;8.680;2022-08-24T10:21:19;28.40;99.90
10417;DHT22;62605;49.432;8.680;2022-08-24T10:24:03;28.50;99.90
10417;DHT22;62605;49.432;8.680;2022-08-24T10:26:39;28.50;99.90
10417;DHT22;62605;49.432;8.680;2022-08-24T10:29:22;28.40;99.90
10417;DHT22;62605;49.432;8.680;2022-08-24T10:32:07;28.50;99.90
10417;DHT22;62605;49.432;8.680;2022-08-24T10:34:50;28.60;99.90
10417;DHT22;62605;49.432;8.680;2022-08-24T10:37:40;28.60;99.90
10417;DHT22;62605;49.432;8.680;2022-08-24T10:40:24;28.70;99.90
10417;DHT22;62605;49.432;8.680;2022-08-24T10:43:14;28.80;99.90
10417;DHT22;62605;49.432;8.680;2022-08-24T10:46:28;28.80;99.90
10417;DHT22;62605;49.432;8.680;2022-08-24T10:52:56;29.00;99.90
10417;DHT22;62605;49.432;8.680;2022-08-24T10:55:32;29.40;99.90
10417;DHT22;62605;49.432;8.680;2022-08-24T10:58:22;29.40;99.90
10417;DHT22;62605;49.432;8.680;2022-08-24T11:01:15;29.60;99.90
10417;DHT22;62605;49.432;8.680;2022-08-24T11:03:49;29.80;99.90
10417;DHT22;62605;49.432;8.680;2022-08-24T11:06:18;29.70;99.90
10417;DHT22;62605;49.432;8.680;2022-08-24T11:08:54;29.60;99.90
10417;DHT22;62605;49.432;8.680;2022-08-24T11:11:27;29.60;99.90
10417;DHT22;62605;49.432;8.680;2022-08-24T11:13:57;29.50;99.90
10417;DHT22;62605;49.432;8.680;2022-08-24T11:16:31;29.90;99.90
10417;DHT22;62605;49.432;8.680;2022-08-24T11:19:05;29.90;99.90
10417;DHT22;62605;49.432;8.680;2022-08-24T11:21:44;30.20;99.90
10417;DHT22;62605;49.432;8.680;2022-08-24T11:24:26;30.10;99.90
10417;DHT22;62605;49.432;8.680;2022-08-24T11:26:58;30.40;99.90
10417;DHT22;62605;49.432;8.680;2022-08-24T11:29:29;30.40;99.90
10417;DHT22;62605;49.432;8.680;2022-08-24T11:32:32;30.40;99.90
10417;DHT22;62605;49.432;8.680;2022-08-24T11:35:07;30.90;99.90
10417;DHT22;62605;49.432;8.680;2022-08-24T11:37:40;30.60;99.90
10417;DHT22;62605;49.432;8.680;2022-08-24T11:40:09;30.60;99.90
10417;DHT22;62605;49.432;8.680;2022-08-24T11:45:34;29.80;99.90
10417;DHT22;62605;49.432;8.680;2022-08-24T11:48:13;29.70;99.90
10417;DHT22;62605;49.432;8.680;2022-08-24T11:50:47;30.00;99.90
10417;DHT22;62605;49.432;8.680;2022-08-24T11:53:29;30.10;99.90
10417;DHT22;62605;49.432;8.680;2022-08-24T11:56:03;30.50;99.90
10417;DHT22;62605;49.432;8.680;2022-08-24T11:58:50;30.60;99.90
10417;DHT22;62605;49.432;8.680;2022-08-24T12:01:24;30.30;99.90
10417;DHT22;62605;49.432;8.680;2022-08-24T12:04:28;30.10;99.90
10417;DHT22;62605;49.432;8.680;2022-08-24T12:07:04;30.40;99.90
10417;DHT22;62605;49.432;8.680;2022-08-24T12:09:54;30.30;99.90
10417;DHT22;62605;49.432;8.680;2022-08-24T12:12:28;30.00;99.90
10417;DHT22;62605;49.432;8.680;2022-08-24T12:15:04;30.60;99.90
10417;DHT22;62605;49.432;8.680;2022-08-24T12:17:38;31.10;99.90
10417;DHT22;62605;49.432;8.680;2022-08-24T12:20:17;31.00;99.90
10417;DHT22;62605;49.432;8.680;2022-08-24T12:22:48;31.50;99.90
10417;DHT22;62605;49.432;8.680;2022-08-24T12:25:18;31.90;99.90
10417;DHT22;62605;49.432;8.680;2022-08-24T12:28:03;31.60;99.90
10417;DHT22;62605;49.432;8.680;2022-08-24T12:30:33;32.20;99.90
10417;DHT22;62605;49.432;8.680;2022-08-24T12:33:05;32.50;99.90
10417;DHT22;62605;49.432;8.680;2022-08-24T12:35:38;32.80;99.90
10417;DHT22;62605;49.432;8.680;2022-08-24T12:38:12;32.70;99.90
10417;DHT22;62605;49.432;8.680;2022-08-24T12:40:43;33.10;99.90
10417;DHT22;62605;49.432;8.680;2022-08-24T12:43:17;32.80;99.90
10417;DHT22;62605;49.432;8.680;2022-08-24T12:45:49;33.00;99.90
10417;DHT22;62605;49.432;8.680;2022-08-24T12:48:22;33.00;99.90
10417;DHT22;62605;49.432;8.680;2022-08-24T12:51:02;32.50;99.90
10417;DHT22;62605;49.432;8.680;2022-08-24T12:53:54;32.90;99.90
10417;DHT22;62605;49.432;8.680;2022-08-24T12:57:01;32.50;99.90
10417;DHT22;62605;49.432;8.680;2022-08-24T12:59:37;32.60;99.90
10417;DHT22;62605;49.432;8.680;2022-08-24T13:02:26;32.40;99.90
10417;DHT22;62605;49.432;8.680;2022-08-24T13:04:57;32.60;99.90
10417;DHT22;62605;49.432;8.680;2022-08-24T13:07:28;32.70;99.90
10417;DHT22;62605;49.432;8.680;2022-08-24T13:10:08;32.70;99.90
10417;DHT22;62605;49.432;8.680;2022-08-24T13:12:54;32.70;99.90
10417;DHT22;62605;49.432;8.680;2022-08-24T13:15:58;32.90;99.90
10417;DHT22;62605;49.432;8.680;2022-08-24T13:18:47;31.80;99.90
10417;DHT22;62605;49.432;8.680;2022-08-24T13:21:40;31.60;99.90
10417;DHT22;62605;49.432;8.680;2022-08-24T13:33:17;32.70;99.90
10417;DHT22;62605;49.432;8.680;2022-08-24T13:35:59;32.80;99.90
10417;DHT22;62605;49.432;8.680;2022-08-24T13:38:44;32.20;99.90
10417;DHT22;62605;49.432;8.680;2022-08-24T13:41:24;31.60;99.90
10417;DHT22;62605;49.432;8.680;2022-08-24T13:44:00;31.60;99.90
10417;DHT22;62605;49.432;8.680;2022-08-24T13:46:46;31.60;99.90
10417;DHT22;62605;49.432;8.680;2022-08-24T13:49:24;31.80;99.90
10417;DHT22;62605;49.432;8.680;2022-08-24T13:52:07;32.00;99.90
10417;DHT22;62605;49.432;8.680;2022-08-24T13:54:43;32.10;99.90
10417;DHT22;62605;49.432;8.680;2022-08-24T13:57:26;32.40;99.90
10417;DHT22;62605;49.432;8.680;2022-08-24T14:03:00;32.60;99.90
10417;DHT22;62605;49.432;8.680;2022-08-24T14:05:34;32.90;99.90
10417;DHT22;62605;49.432;8.680;2022-08-24T14:08:31;32.80;99.90
10417;DHT22;62605;49.432;8.680;2022-08-24T14:11:08;32.70;99.90
10417;DHT22;62605;49.432;8.680;2022-08-24T14:16:37;33.30;99.90
10417;DHT22;62605;49.432;8.680;2022-08-24T14:19:31;33.10;99.90
10417;DHT22;62605;49.432;8.680;2022-08-24T14:22:17;32.70;99.90
10417;DHT22;62605;49.432;8.680;2022-08-24T14:25:11;32.70;99.90
10417;DHT22;62605;49.432;8.680;2022-08-24T14:27:42;32.60;99.90
10417;DHT22;62605;49.432;8.680;2022-08-24T14:30:38;32.80;99.90
10417;DHT22;62605;49.432;8.680;2022-08-24T14:33:16;33.20;99.90
10417;DHT22;62605;49.432;8.680;2022-08-24T14:35:56;33.10;99.90
10417;DHT22;62605;49.432;8.680;2022-08-24T14:38:37;32.60;99.90
10417;DHT22;62605;49.432;8.680;2022-08-24T14:41:24;33.00;99.90
10417;DHT22;62605;49.432;8.680;2022-08-24T14:44:12;33.10;99.90
10417;DHT22;62605;49.432;8.680;2022-08-24T14:46:51;33.60;99.90
10417;DHT22;62605;49.432;8.680;2022-08-24T14:49:27;34.00;99.90
10417;DHT22;62605;49.432;8.680;2022-08-24T14:52:06;33.90;99.90
10417;DHT22;62605;49.432;8.680;2022-08-24T14:54:43;33.90;99.90
10417;DHT22;62605;49.432;8.680;2022-08-24T15:00:07;33.80;99.90
10417;DHT22;62605;49.432;8.680;2022-08-24T15:03:00;33.80;99.90
10417;DHT22;62605;49.432;8.680;2022-08-24T15:05:42;33.50;99.90
10417;DHT22;62605;49.432;8.680;2022-08-24T15:08:12;33.50;99.90
10417;DHT22;62605;49.432;8.680;2022-08-24T15:10:55;33.60;99.90
10417;DHT22;62605;49.432;8.680;2022-08-24T15:13:30;33.00;99.90
10417;DHT22;62605;49.432;8.680;2022-08-24T15:16:03;33.00;99.90
10417;DHT22;62605;49.432;8.680;2022-08-24T15:18:36;32.70;99.90
10417;DHT22;62605;49.432;8.680;2022-08-24T15:21:11;32.50;99.90
10417;DHT22;62605;49.432;8.680;2022-08-24T15:23:56;32.00;99.90
10417;DHT22;62605;49.432;8.680;2022-08-24T15:26:39;32.50;99.90
10417;DHT22;62605;49.432;8.680;2022-08-24T15:29:14;32.90;99.90
10417;DHT22;62605;49.432;8.680;2022-08-24T15:31:54;33.00;99.90
10417;DHT22;62605;49.432;8.680;2022-08-24T15:34:46;33.30;99.90
10417;DHT22;62605;49.432;8.680;2022-08-24T15:37:15;33.00;99.90
10417;DHT22;62605;49.432;8.680;2022-08-24T15:39:42;33.00;99.90
10417;DHT22;62605;49.432;8.680;2022-08-24T15:42:13;33.00;99.90
10417;DHT22;62605;49.432;8.680;2022-08-24T15:44:44;33.10;99.90
10417;DHT22;62605;49.432;8.680;2022-08-24T15:47:20;33.00;99.90
10417;DHT22;62605;49.432;8.680;2022-08-24T15:49:52;33.30;99.90
10417;DHT22;62605;49.432;8.680;2022-08-24T15:52:37;33.00;99.90
10417;DHT22;62605;49.432;8.680;2022-08-24T15:55:07;33.20;99.90
10417;DHT22;62605;49.432;8.680;2022-08-24T15:57:42;32.80;99.90
10417;DHT22;62605;49.432;8.680;2022-08-24T16:00:16;33.00;99.90
10417;DHT22;62605;49.432;8.680;2022-08-24T16:03:21;33.00;99.90
10417;DHT22;62605;49.432;8.680;2022-08-24T16:05:49;32.50;99.90
10417;DHT22;62605;49.432;8.680;2022-08-24T16:08:17;33.20;99.90
10417;DHT22;62605;49.432;8.680;2022-08-24T16:10:47;33.30;99.90
10417;DHT22;62605;49.432;8.680;2022-08-24T16:13:24;33.70;99.90
10417;DHT22;62605;49.432;8.680;2022-08-24T16:15:58;34.60;99.90
10417;DHT22;62605;49.432;8.680;2022-08-24T16:18:42;34.60;99.90
10417;DHT22;62605;49.432;8.680;2022-08-24T16:21:13;34.40;99.90
10417;DHT22;62605;49.432;8.680;2022-08-24T16:23:44;33.80;99.90
10417;DHT22;62605;49.432;8.680;2022-08-24T16:26:23;34.60;99.90
10417;DHT22;62605;49.432;8.680;2022-08-24T16:28:51;35.30;99.90
10417;DHT22;62605;49.432;8.680;2022-08-24T16:31:49;35.50;99.90
10417;DHT22;62605;49.432;8.680;2022-08-24T16:34:27;35.70;99.90
10417;DHT22;62605;49.432;8.680;2022-08-24T16:36:55;35.10;99.90
10417;DHT22;62605;49.432;8.680;2022-08-24T16:39:23;34.30;99.90
10417;DHT22;62605;49.432;8.680;2022-08-24T16:41:52;33.60;99.90